Bristow, Oklahoma
Current Conditions -  °F | °C
As of 3:15 AM on Wednesday 28 Jan 2015 (Local Time) from KCUH Reporting Station
Clear Clear  
Wind Chill: 41°   Ceiling: Unl
Heat Index: 41°   Visibility: 10mi
Dew Point: 37°   Wind: 3mph
Humidity: 87%   Direction: 170°S
Pressure: 30.02"   Gusts: NA
Location:  35.83°N, 96.39°W
Report Text: KCUH 280915Z AUTO 17003KT 10SM CLR 05/03 A3002 RMK AO2
Loading
Personal Weather Stations






























Interactive Weather Map New forecast layout! Learn more

10-Day Weather Forecast

Advertisements
Track Severe Weather on mobile